Time;durP1;ratioP1;P1;durP2;ratioP2;P2;SDS_P1;SDS_P2;PMS_P1;PMS_P2;Temp;Humidity;BMP_temperature;BMP_pressure;BME280_temperature;BME280_humidity;BME280_pressure;Samples;Min_cycle;Max_cycle;Signal;HPM_P1;HPM_P2
2021/11/03 00:01:10;;;;;;;;;;;;;;;;;;5055138;28;19970;-84
2021/11/03 00:03:35;;;;;;;;;;;;;;;;;;5056023;28;19975;-84
2021/11/03 00:06:01;;;;;;;;;;;;;;;;;;5054274;28;20346;-84
2021/11/03 00:08:27;;;;;;;;;;;;;;;;;;5055243;28;19912;-84
2021/11/03 00:10:54;;;;;;;;;;;;;;;;;;5055411;28;19913;-84
2021/11/03 00:13:21;;;;;;;;;;;;;;;;;;5055017;28;19989;-84
2021/11/03 00:15:47;;;;;;;;;;;;;;;;;;5054986;28;20023;-83
2021/11/03 00:18:12;;;;;;;;;;;;;;;;;;5054071;28;19960;-85
2021/11/03 00:20:38;;;;;;;;;;;;;;;;;;5055064;28;20321;-83
2021/11/03 00:23:03;;;;;;;;;;;;;;;;;;5054962;28;19917;-83
2021/11/03 00:25:29;;;;;;;;;;;;;;;;;;5055015;28;19913;-84
2021/11/03 00:27:54;;;;;;;;;;;;;;;;;;5054924;28;19967;-83
2021/11/03 00:30:19;;;;;;;;;;;;;;;;;;5055249;28;19912;-84
2021/11/03 00:32:45;;;;;;;;;;;;;;;;;;5055003;28;20220;-83
2021/11/03 00:35:11;;;;;;;;;;;;;;;;;;5055122;28;19963;-83
2021/11/03 00:37:36;;;;;;;;;;;;;;;;;;5055110;28;19943;-83
2021/11/03 00:40:02;;;;;;;;;;;;;;;;;;5055175;28;19913;-83
2021/11/03 00:42:28;;;;;;;;;;;;;;;;;;5061793;28;19921;-83
2021/11/03 00:44:53;;;;;;;;;;;;;;;;;;5072077;28;19997;-83
2021/11/03 00:47:18;;;;;;;;;;;;;;;;;;5072693;28;19967;-83
2021/11/03 00:49:43;;;;;;;;;;;;;;;;;;5073131;28;19927;-83
2021/11/03 00:52:09;;;;;;;;;;;;;;;;;;5071606;28;19932;-82
2021/11/03 00:54:34;;;;;;;;;;;;;;;;;;5075148;28;19968;-81
2021/11/03 00:56:59;;;;;;;;;;;;;;;;;;5074216;28;19913;-83
2021/11/03 00:59:24;;;;;;;;;;;;;;;;;;5077130;28;19912;-83
2021/11/03 01:01:50;;;;;;;;;;;;;;;;;;5073865;28;19912;-83
2021/11/03 01:04:15;;;;;;;;;;;;;;;;;;5073084;28;19912;-82
2021/11/03 01:06:41;;;;;;;;;;;;;;;;;;5072390;28;19995;-83
2021/11/03 01:09:06;;;;;;;;;;;;;;;;;;5069472;28;19913;-83
2021/11/03 01:11:32;;;;;;;;;;;;;;;;;;5067254;28;19912;-83
2021/11/03 01:13:58;;;;;;;;;;;;;;;;;;5059693;28;20259;-83
2021/11/03 01:16:23;;;;;;;;;;;;;;;;;;5058626;28;20373;-83
2021/11/03 01:18:53;;;;;;;;;;;;;;;;;;5057159;28;19913;-83
2021/11/03 01:21:18;;;;;;;;;;;;;;;;;;5057982;28;19913;-83
2021/11/03 01:23:43;;;;;;;;;;;;;;;;;;5057123;28;19943;-83
2021/11/03 01:26:08;;;;;;;;;;;;;;;;;;5058067;28;19913;-83
2021/11/03 01:28:34;;;;;;;;;;;;;;;;;;5057744;28;20294;-83
2021/11/03 01:30:59;;;;;;;;;;;;;;;;;;5057904;28;20263;-84
2021/11/03 01:33:24;;;;;;;;;;;;;;;;;;5057569;28;20274;-84
2021/11/03 01:35:49;;;;;;;;;;;;;;;;;;5057688;28;19999;-85
2021/11/03 01:38:15;;;;;;;;;;;;;;;;;;5057717;28;19913;-85
2021/11/03 01:40:42;;;;;;;;;;;;;;;;;;5058383;28;20066;-85
2021/11/03 01:43:08;;;;;;;;;;;;;;;;;;5057854;28;19912;-84
2021/11/03 01:45:36;;;;;;;;;;;;;;;;;;5057643;28;19944;-85
2021/11/03 01:48:03;;;;;;;;;;;;;;;;;;5057000;28;19912;-85
2021/11/03 01:50:37;;;;;;;;;;;;;;;;;;5056939;28;19912;-84
2021/11/03 01:53:21;;;;;;;;;;;;;;;;;;5056817;28;19928;-83
2021/11/03 01:55:50;;;;;;;;;;;;;;;;;;5056928;28;19948;-82
2021/11/03 01:58:19;;;;;;;;;;;;;;;;;;5056710;28;19912;-82
2021/11/03 02:00:46;;;;;;;;;;;;;;;;;;5057612;28;19912;-85
2021/11/03 02:03:14;;;;;;;;;;;;;;;;;;5057332;28;19971;-83
2021/11/03 02:05:47;;;;;;;;;;;;;;;;;;5057644;28;19921;-84
2021/11/03 02:08:13;;;;;;;;;;;;;;;;;;5057772;28;19912;-83
2021/11/03 02:10:38;;;;;;;;;;;;;;;;;;5057554;28;19985;-85
2021/11/03 02:13:03;;;;;;;;;;;;;;;;;;5057460;28;19921;-85
2021/11/03 02:15:29;;;;;;;;;;;;;;;;;;5056273;28;20389;-82
2021/11/03 02:17:55;;;;;;;;;;;;;;;;;;5058034;28;19920;-84
2021/11/03 02:20:22;;;;;;;;;;;;;;;;;;5056744;28;19913;-84
2021/11/03 02:22:50;;;;;;;;;;;;;;;;;;5056826;28;19913;-82
2021/11/03 02:25:17;;;;;;;;;;;;;;;;;;5056138;28;20258;-85
2021/11/03 02:27:44;;;;;;;;;;;;;;;;;;5056523;28;19919;-83
2021/11/03 02:30:11;;;;;;;;;;;;;;;;;;5055981;28;19935;-84
2021/11/03 02:32:37;;;;;;;;;;;;;;;;;;5056900;28;19924;-84
2021/11/03 02:35:03;;;;;;;;;;;;;;;;;;5056945;28;19913;-85
2021/11/03 02:37:34;;;;;;;;;;;;;;;;;;5055794;28;19912;-82
2021/11/03 02:40:10;;;;;;;;;;;;;;;;;;5057119;28;19923;-83
2021/11/03 02:42:37;;;;;;;;;;;;;;;;;;5055864;28;19978;-85
2021/11/03 02:45:04;;;;;;;;;;;;;;;;;;5056731;28;20367;-83
2021/11/03 02:47:30;;;;;;;;;;;;;;;;;;5055667;28;19912;-84
2021/11/03 02:49:55;;;;;;;;;;;;;;;;;;5055685;28;19913;-81
2021/11/03 02:52:21;;;;;;;;;;;;;;;;;;5056567;28;19925;-84
2021/11/03 02:54:47;;;;;;;;;;;;;;;;;;5056463;28;19955;-83
2021/11/03 02:57:12;;;;;;;;;;;;;;;;;;5056659;28;19916;-83
2021/11/03 02:59:38;;;;;;;;;;;;;;;;;;5055560;28;19919;-84
2021/11/03 03:02:05;;;;;;;;;;;;;;;;;;5055533;28;19929;-85
2021/11/03 03:04:34;;;;;;;;;;;;;;;;;;5057103;28;19928;-83
2021/11/03 03:06:59;;;;;;;;;;;;;;;;;;5056444;28;19917;-86
2021/11/03 03:09:25;;;;;;;;;;;;;;;;;;5055515;28;20342;-82
2021/11/03 03:11:52;;;;;;;;;;;;;;;;;;5056977;28;20270;-85
2021/11/03 03:14:19;;;;;;;;;;;;;;;;;;5056662;28;20019;-82
2021/11/03 03:16:46;;;;;;;;;;;;;;;;;;5061607;28;19912;-81
2021/11/03 03:19:11;;;;;;;;;;;;;;;;;;5063757;28;20023;-83
2021/11/03 03:21:37;;;;;;;;;;;;;;;;;;5061841;28;19948;-82
2021/11/03 03:24:03;;;;;;;;;;;;;;;;;;5063640;28;19924;-82
2021/11/03 03:26:28;;;;;;;;;;;;;;;;;;5060785;28;20343;-82
2021/11/03 03:28:54;;;;;;;;;;;;;;;;;;5059075;28;19932;-82
2021/11/03 03:31:21;;;;;;;;;;;;;;;;;;5056758;28;20413;-81
2021/11/03 03:33:47;;;;;;;;;;;;;;;;;;5055646;28;19973;-82
2021/11/03 03:36:13;;;;;;;;;;;;;;;;;;5055855;28;19928;-84
2021/11/03 03:38:38;;;;;;;;;;;;;;;;;;5056124;28;20350;-84
2021/11/03 03:41:03;;;;;;;;;;;;;;;;;;5055838;28;20314;-84
2021/11/03 03:43:29;;;;;;;;;;;;;;;;;;5055646;28;19913;-86
2021/11/03 03:45:54;;;;;;;;;;;;;;;;;;5054834;28;19952;-83
2021/11/03 03:48:19;;;;;;;;;;;;;;;;;;5055631;28;19913;-85
2021/11/03 03:50:45;;;;;;;;;;;;;;;;;;5054436;28;20010;-82
2021/11/03 03:53:12;;;;;;;;;;;;;;;;;;5054929;28;21366;-83
2021/11/03 03:55:38;;;;;;;;;;;;;;;;;;5056021;28;20011;-83
2021/11/03 03:58:04;;;;;;;;;;;;;;;;;;5054483;28;19917;-82
2021/11/03 04:00:30;;;;;;;;;;;;;;;;;;5054521;28;19940;-83
2021/11/03 04:02:55;;;;;;;;;;;;;;;;;;5054373;28;19986;-85
2021/11/03 04:05:21;;;;;;;;;;;;;;;;;;5054727;28;19920;-85
2021/11/03 04:07:46;;;;;;;;;;;;;;;;;;5054470;28;20012;-83
2021/11/03 04:10:12;;;;;;;;;;;;;;;;;;5055526;28;20319;-84
2021/11/03 04:12:38;;;;;;;;;;;;;;;;;;5054296;28;19936;-83
2021/11/03 04:15:04;;;;;;;;;;;;;;;;;;5087833;28;19944;-85
2021/11/03 04:17:29;;;;;;;;;;;;;;;;;;5054447;28;19913;-83
2021/11/03 04:19:55;;;;;;;;;;;;;;;;;;5054489;28;19955;-82
2021/11/03 04:22:20;;;;;;;;;;;;;;;;;;5055683;28;19917;-83
2021/11/03 04:24:45;;;;;;;;;;;;;;;;;;5054461;28;19920;-84
2021/11/03 04:27:10;;;;;;;;;;;;;;;;;;5055402;28;19913;-85
2021/11/03 04:29:36;;;;;;;;;;;;;;;;;;5056230;28;19923;-82
2021/11/03 04:32:01;;;;;;;;;;;;;;;;;;5054924;28;19975;-83
2021/11/03 04:34:27;;;;;;;;;;;;;;;;;;5055235;28;19951;-83
2021/11/03 04:36:52;;;;;;;;;;;;;;;;;;5055413;28;19913;-82
2021/11/03 04:39:18;;;;;;;;;;;;;;;;;;5055069;28;19948;-82
2021/11/03 04:41:43;;;;;;;;;;;;;;;;;;5055012;28;19927;-83
2021/11/03 04:44:09;;;;;;;;;;;;;;;;;;5054130;28;19996;-84
2021/11/03 04:46:34;;;;;;;;;;;;;;;;;;5058185;28;19924;-83
2021/11/03 04:49:00;;;;;;;;;;;;;;;;;;5059992;28;19921;-82
2021/11/03 04:51:25;;;;;;;;;;;;;;;;;;5059690;28;19939;-85
2021/11/03 04:53:51;;;;;;;;;;;;;;;;;;5067508;28;19919;-82
2021/11/03 04:56:19;;;;;;;;;;;;;;;;;;5076944;28;19929;-82
2021/11/03 04:58:46;;;;;;;;;;;;;;;;;;5077287;28;19924;-84
2021/11/03 05:01:11;;;;;;;;;;;;;;;;;;5062954;28;19923;-82
2021/11/03 05:03:36;;;;;;;;;;;;;;;;;;5065552;28;19948;-82
2021/11/03 05:06:02;;;;;;;;;;;;;;;;;;5076397;28;19924;-81
2021/11/03 05:08:27;;;;;;;;;;;;;;;;;;5071967;28;19923;-83
2021/11/03 05:10:53;;;;;;;;;;;;;;;;;;5060081;28;20077;-83
2021/11/03 05:13:18;;;;;;;;;;;;;;;;;;5060566;28;20350;-85
2021/11/03 05:15:43;;;;;;;;;;;;;;;;;;5060283;28;19932;-83
2021/11/03 05:18:08;;;;;;;;;;;;;;;;;;5066922;28;20367;-82
2021/11/03 05:20:34;;;;;;;;;;;;;;;;;;5060086;28;20261;-85
2021/11/03 05:22:59;;;;;;;;;;;;;;;;;;5061398;28;19952;-84
2021/11/03 05:25:26;;;;;;;;;;;;;;;;;;5059425;28;19912;-82
2021/11/03 05:27:52;;;;;;;;;;;;;;;;;;5070709;28;19920;-84
2021/11/03 05:30:18;;;;;;;;;;;;;;;;;;5074490;28;19913;-81
2021/11/03 05:32:44;;;;;;;;;;;;;;;;;;5076096;28;19921;-82
2021/11/03 05:35:09;;;;;;;;;;;;;;;;;;5077199;28;19920;-84
2021/11/03 05:37:35;;;;;;;;;;;;;;;;;;5074787;28;19912;-82
2021/11/03 05:40:01;;;;;;;;;;;;;;;;;;5076809;28;19919;-81
2021/11/03 05:42:26;;;;;;;;;;;;;;;;;;5076326;28;19971;-83
2021/11/03 05:44:51;;;;;;;;;;;;;;;;;;5069778;28;19913;-82
2021/11/03 05:47:21;;;;;;;;;;;;;;;;;;5064779;28;19923;-82
2021/11/03 05:49:47;;;;;;;;;;;;;;;;;;5058779;28;19913;-84
2021/11/03 05:52:12;;;;;;;;;;;;;;;;;;5057738;28;20015;-85
2021/11/03 05:54:37;;;;;;;;;;;;;;;;;;5057903;28;19956;-85
2021/11/03 05:57:03;;;;;;;;;;;;;;;;;;5057225;28;19913;-82
2021/11/03 05:59:29;;;;;;;;;;;;;;;;;;5057672;28;20277;-82
2021/11/03 06:01:56;;;;;;;;;;;;;;;;;;5057527;28;20369;-83
2021/11/03 06:04:21;;;;;;;;;;;;;;;;;;5057661;28;20331;-84
2021/11/03 06:06:46;;;;;;;;;;;;;;;;;;5057420;28;19932;-83
2021/11/03 06:09:11;;;;;;;;;;;;;;;;;;5058092;28;19920;-82
2021/11/03 06:11:38;;;;;;;;;;;;;;;;;;5058236;28;19913;-85
2021/11/03 06:14:04;;;;;;;;;;;;;;;;;;5057956;28;19921;-81
2021/11/03 06:16:29;;;;;;;;;;;;;;;;;;5057374;28;20000;-82
2021/11/03 06:18:54;;;;;;;;;;;;;;;;;;5057286;28;19913;-83
2021/11/03 06:21:19;;;;;;;;;;;;;;;;;;5057583;28;19942;-84
2021/11/03 06:23:45;;;;;;;;;;;;;;;;;;5056581;28;20345;-82
2021/11/03 06:26:13;;;;;;;;;;;;;;;;;;5057745;28;19970;-80
2021/11/03 06:28:39;;;;;;;;;;;;;;;;;;5058052;28;19913;-82
2021/11/03 06:31:05;;;;;;;;;;;;;;;;;;5057806;28;19913;-82
2021/11/03 06:33:30;;;;;;;;;;;;;;;;;;5058061;28;19917;-83
2021/11/03 06:35:55;;;;;;;;;;;;;;;;;;5057844;28;19977;-83
2021/11/03 06:38:21;;;;;;;;;;;;;;;;;;5057224;28;19912;-82
2021/11/03 06:40:46;;;;;;;;;;;;;;;;;;5056149;28;19912;-83
2021/11/03 06:43:12;;;;;;;;;;;;;;;;;;5057554;28;19913;-82
2021/11/03 06:45:38;;;;;;;;;;;;;;;;;;5057087;28;19924;-82
2021/11/03 06:48:04;;;;;;;;;;;;;;;;;;5057336;28;19923;-82
2021/11/03 06:50:33;;;;;;;;;;;;;;;;;;5057031;28;19951;-82
2021/11/03 06:53:00;;;;;;;;;;;;;;;;;;5057248;28;19917;-84
2021/11/03 06:55:25;;;;;;;;;;;;;;;;;;5055875;28;19913;-83
2021/11/03 06:57:51;;;;;;;;;;;;;;;;;;5056871;28;19923;-82
2021/11/03 07:00:22;;;;;;;;;;;;;;;;;;5056741;28;19916;-83
2021/11/03 07:02:48;;;;;;;;;;;;;;;;;;5055774;28;20012;-83
2021/11/03 07:05:13;;;;;;;;;;;;;;;;;;5056840;28;19964;-83
2021/11/03 07:07:38;;;;;;;;;;;;;;;;;;5056557;28;19913;-84
2021/11/03 07:10:07;;;;;;;;;;;;;;;;;;5054740;28;20081;-84
2021/11/03 07:12:33;;;;;;;;;;;;;;;;;;5056266;28;19924;-82
2021/11/03 07:14:58;;;;;;;;;;;;;;;;;;5055741;28;19913;-83
2021/11/03 07:17:23;;;;;;;;;;;;;;;;;;5055316;28;20243;-84
2021/11/03 07:19:48;;;;;;;;;;;;;;;;;;5056794;28;20017;-83
2021/11/03 07:22:14;;;;;;;;;;;;;;;;;;5056829;28;19917;-84
2021/11/03 07:24:39;;;;;;;;;;;;;;;;;;5060247;28;19913;-81
2021/11/03 07:27:04;;;;;;;;;;;;;;;;;;5057865;28;19971;-83
2021/11/03 07:29:30;;;;;;;;;;;;;;;;;;5061534;28;19916;-84
2021/11/03 07:31:55;;;;;;;;;;;;;;;;;;5057136;28;19923;-81
2021/11/03 07:34:20;;;;;;;;;;;;;;;;;;5056481;28;19921;-83
2021/11/03 07:36:45;;;;;;;;;;;;;;;;;;5056018;28;19924;-83
2021/11/03 07:39:11;;;;;;;;;;;;;;;;;;5056059;28;20272;-82
2021/11/03 07:41:36;;;;;;;;;;;;;;;;;;5057309;28;19913;-82
2021/11/03 07:44:03;;;;;;;;;;;;;;;;;;5055961;28;20265;-83
2021/11/03 07:46:28;;;;;;;;;;;;;;;;;;5055129;28;19924;-82
2021/11/03 07:48:54;;;;;;;;;;;;;;;;;;5055759;28;19917;-81
2021/11/03 07:51:21;;;;;;;;;;;;;;;;;;5055558;28;19921;-82
2021/11/03 07:53:48;;;;;;;;;;;;;;;;;;5055458;28;19925;-82
2021/11/03 07:56:15;;;;;;;;;;;;;;;;;;5054897;28;20301;-84
2021/11/03 07:58:41;;;;;;;;;;;;;;;;;;5055761;28;19975;-82
2021/11/03 08:01:08;;;;;;;;;;;;;;;;;;5054494;28;19951;-82
2021/11/03 08:03:33;;;;;;;;;;;;;;;;;;5054581;28;20399;-82
2021/11/03 08:05:59;;;;;;;;;;;;;;;;;;5055719;28;19912;-84
2021/11/03 08:08:26;;;;;;;;;;;;;;;;;;5055637;28;19928;-83
2021/11/03 08:10:53;;;;;;;;;;;;;;;;;;5055563;28;19996;-83
2021/11/03 08:13:19;;;;;;;;;;;;;;;;;;5055411;28;20355;-82
2021/11/03 08:15:46;;;;;;;;;;;;;;;;;;5055236;28;19917;-82
2021/11/03 08:18:12;;;;;;;;;;;;;;;;;;5055470;28;19921;-84
2021/11/03 08:20:39;;;;;;;;;;;;;;;;;;5057769;28;19919;-84
2021/11/03 08:23:04;;;;;;;;;;;;;;;;;;5059002;28;20282;-81
2021/11/03 08:25:30;;;;;;;;;;;;;;;;;;5059700;28;20418;-81
2021/11/03 08:27:55;;;;;;;;;;;;;;;;;;5058770;28;19912;-83
2021/11/03 08:30:21;;;;;;;;;;;;;;;;;;5058653;28;20349;-82
2021/11/03 08:33:06;;;;;;;;;;;;;;;;;;5058827;28;19916;-81
2021/11/03 08:35:32;;;;;;;;;;;;;;;;;;5060238;28;19913;-80
2021/11/03 08:38:03;;;;;;;;;;;;;;;;;;5060669;28;19974;-81
2021/11/03 08:40:29;;;;;;;;;;;;;;;;;;5060866;28;19923;-82
2021/11/03 08:42:55;;;;;;;;;;;;;;;;;;5061492;28;19917;-82
2021/11/03 08:45:22;;;;;;;;;;;;;;;;;;5060911;28;19948;-80
2021/11/03 08:47:47;;;;;;;;;;;;;;;;;;5060122;28;19913;-80
2021/11/03 08:50:14;;;;;;;;;;;;;;;;;;5060646;28;19923;-82
2021/11/03 08:52:40;;;;;;;;;;;;;;;;;;5060596;28;19917;-82
2021/11/03 08:55:06;;;;;;;;;;;;;;;;;;5061656;28;19932;-85
2021/11/03 08:57:33;;;;;;;;;;;;;;;;;;5061972;28;19920;-82
2021/11/03 08:59:58;;;;;;;;;;;;;;;;;;5061977;28;20019;-82
2021/11/03 09:02:23;;;;;;;;;;;;;;;;;;5061792;28;19964;-81
2021/11/03 09:04:49;;;;;;;;;;;;;;;;;;5063074;28;19912;-83
2021/11/03 09:07:14;;;;;;;;;;;;;;;;;;5068087;28;19927;-84
2021/11/03 09:09:42;;;;;;;;;;;;;;;;;;5073161;28;19924;-83
2021/11/03 09:12:07;;;;;;;;;;;;;;;;;;5071214;28;19947;-83
2021/11/03 09:14:33;;;;;;;;;;;;;;;;;;5070658;28;19913;-82
2021/11/03 09:16:58;;;;;;;;;;;;;;;;;;5072563;28;20402;-82
2021/11/03 09:19:23;;;;;;;;;;;;;;;;;;5074715;28;20073;-81
2021/11/03 09:21:48;;;;;;;;;;;;;;;;;;5072345;28;19963;-83
2021/11/03 09:24:14;;;;;;;;;;;;;;;;;;5065116;28;19917;-82
2021/11/03 09:26:39;;;;;;;;;;;;;;;;;;5064943;28;19984;-80
2021/11/03 09:29:05;;;;;;;;;;;;;;;;;;5065844;28;19917;-82
2021/11/03 09:31:30;;;;;;;;;;;;;;;;;;5060946;28;19913;-83
2021/11/03 09:33:57;;;;;;;;;;;;;;;;;;5060627;28;19917;-82
2021/11/03 09:36:22;;;;;;;;;;;;;;;;;;5061300;28;19972;-81
2021/11/03 09:38:48;;;;;;;;;;;;;;;;;;5060958;28;20323;-82
2021/11/03 09:41:36;;;;;;;;;;;;;;;;;;5063141;28;19979;-86
2021/11/03 09:44:12;;;;;;;;;;;;;;;;;;5063345;28;19924;-82
2021/11/03 09:46:37;;;;;;;;;;;;;;;;;;5059809;28;20274;-82
2021/11/03 09:49:09;;;;;;;;;;;;;;;;;;5059583;28;19920;-80
2021/11/03 09:51:35;;;;;;;;;;;;;;;;;;5060050;28;19925;-83
2021/11/03 09:54:02;;;;;;;;;;;;;;;;;;5058714;28;20038;-83
2021/11/03 09:56:47;;;;;;;;;;;;;;;;;;5060193;28;19924;-83
2021/11/03 09:59:18;;;;;;;;;;;;;;;;;;5060785;28;19913;-84
2021/11/03 10:01:46;;;;;;;;;;;;;;;;;;5062366;28;19935;-81
2021/11/03 10:04:30;;;;;;;;;;;;;;;;;;5062497;28;19940;-82
2021/11/03 10:07:09;;;;;;;;;;;;;;;;;;5063216;28;20010;-82
2021/11/03 10:09:38;;;;;;;;;;;;;;;;;;5065278;28;19920;-82
2021/11/03 10:12:09;;;;;;;;;;;;;;;;;;5065537;28;20373;-83
2021/11/03 10:14:34;;;;;;;;;;;;;;;;;;5065393;28;19925;-83
2021/11/03 10:17:17;;;;;;;;;;;;;;;;;;5061671;28;19966;-82
2021/11/03 10:19:42;;;;;;;;;;;;;;;;;;5059223;28;19971;-83
2021/11/03 10:22:28;;;;;;;;;;;;;;;;;;5059070;28;19916;-83
2021/11/03 10:25:03;;;;;;;;;;;;;;;;;;5058780;28;19970;-83
2021/11/03 10:27:29;;;;;;;;;;;;;;;;;;5090965;28;19913;-82
2021/11/03 10:29:55;;;;;;;;;;;;;;;;;;5058086;28;19928;-82
2021/11/03 10:32:26;;;;;;;;;;;;;;;;;;5057379;28;19920;-82
2021/11/03 10:35:00;;;;;;;;;;;;;;;;;;5058467;28;19913;-82
2021/11/03 10:37:32;;;;;;;;;;;;;;;;;;5058230;28;19924;-82
2021/11/03 10:40:05;;;;;;;;;;;;;;;;;;5057060;28;20034;-83
2021/11/03 10:42:32;;;;;;;;;;;;;;;;;;5058168;28;19912;-83
2021/11/03 10:45:27;;;;;;;;;;;;;;;;;;5057762;28;19924;-81
2021/11/03 10:48:10;;;;;;;;;;;;;;;;;;5085376;28;20003;-82
2021/11/03 10:50:54;;;;;;;;;;;;;;;;;;5058525;28;20021;-83
2021/11/03 10:53:21;;;;;;;;;;;;;;;;;;5058342;28;19928;-83
2021/11/03 10:55:49;;;;;;;;;;;;;;;;;;5058658;28;20003;-86
2021/11/03 10:58:17;;;;;;;;;;;;;;;;;;5058831;28;20058;-84
2021/11/03 11:00:56;;;;;;;;;;;;;;;;;;5059187;28;19919;-85
2021/11/03 11:03:25;;;;;;;;;;;;;;;;;;5062482;28;19913;-89
2021/11/03 11:05:53;;;;;;;;;;;;;;;;;;5058739;28;20397;-83
2021/11/03 11:08:20;;;;;;;;;;;;;;;;;;5058385;28;20307;-86
2021/11/03 11:10:48;;;;;;;;;;;;;;;;;;5058790;28;20007;-82
2021/11/03 11:13:21;;;;;;;;;;;;;;;;;;5057281;28;20339;-83
2021/11/03 11:15:51;;;;;;;;;;;;;;;;;;5057646;28;19992;-83
2021/11/03 11:18:36;;;;;;;;;;;;;;;;;;5057660;28;19919;-83
2021/11/03 11:21:03;;;;;;;;;;;;;;;;;;5057446;28;20015;-82
2021/11/03 11:23:37;;;;;;;;;;;;;;;;;;5058358;28;19913;-82
2021/11/03 11:26:10;;;;;;;;;;;;;;;;;;5058085;28;20365;-84
2021/11/03 11:28:36;;;;;;;;;;;;;;;;;;5058642;28;19912;-83
2021/11/03 11:31:07;;;;;;;;;;;;;;;;;;5057873;28;19942;-83
2021/11/03 11:33:53;;;;;;;;;;;;;;;;;;5057703;28;20021;-84
2021/11/03 11:36:18;;;;;;;;;;;;;;;;;;5064064;28;19921;-83
2021/11/03 11:38:58;;;;;;;;;;;;;;;;;;5065683;28;20004;-84
2021/11/03 11:41:24;;;;;;;;;;;;;;;;;;5064384;28;19913;-84
2021/11/03 11:43:50;;;;;;;;;;;;;;;;;;5062617;28;19949;-82
2021/11/03 11:46:20;;;;;;;;;;;;;;;;;;5068701;28;20239;-82
2021/11/03 11:48:47;;;;;;;;;;;;;;;;;;5068278;28;20006;-81
2021/11/03 11:51:15;;;;;;;;;;;;;;;;;;5067593;28;20402;-84
2021/11/03 11:54:02;;;;;;;;;;;;;;;;;;5068741;28;19900;-83
2021/11/03 11:56:29;;;;;;;;;;;;;;;;;;5069905;28;19912;-84
2021/11/03 11:59:02;;;;;;;;;;;;;;;;;;5071192;28;19909;-82
2021/11/03 12:01:35;;;;;;;;;;;;;;;;;;5070014;28;19912;-83
2021/11/03 12:04:00;;;;;;;;;;;;;;;;;;5068222;28;19924;-82
2021/11/03 12:06:44;;;;;;;;;;;;;;;;;;5065064;28;19913;-84
2021/11/03 12:09:17;;;;;;;;;;;;;;;;;;5069923;28;19978;-84
2021/11/03 12:11:59;;;;;;;;;;;;;;;;;;5071448;28;19913;-85
2021/11/03 12:14:33;;;;;;;;;;;;;;;;;;5070959;28;19917;-85
2021/11/03 12:17:07;;;;;;;;;;;;;;;;;;5073605;28;20008;-83
2021/11/03 12:19:35;;;;;;;;;;;;;;;;;;5073723;28;19923;-82
2021/11/03 12:22:02;;;;;;;;;;;;;;;;;;5072278;28;19939;-85
2021/11/03 12:24:30;;;;;;;;;;;;;;;;;;5072645;28;19913;-84
2021/11/03 12:27:20;;;;;;;;;;;;;;;;;;5064255;28;19956;-83
2021/11/03 12:29:54;;;;;;;;;;;;;;;;;;5059732;28;20358;-84
2021/11/03 12:32:31;;;;;;;;;;;;;;;;;;5055493;28;20358;-82
2021/11/03 12:35:01;;;;;;;;;;;;;;;;;;5059009;28;20327;-85
2021/11/03 12:37:28;;;;;;;;;;;;;;;;;;5057524;28;19913;-84
2021/11/03 12:39:58;;;;;;;;;;;;;;;;;;5058853;28;19912;-84
2021/11/03 12:42:26;;;;;;;;;;;;;;;;;;5062088;28;20288;-84
2021/11/03 12:45:10;;;;;;;;;;;;;;;;;;5059327;28;19956;-84
2021/11/03 12:47:45;;;;;;;;;;;;;;;;;;5060081;28;19944;-84
2021/11/03 12:50:21;;;;;;;;;;;;;;;;;;5057802;28;19916;-82
2021/11/03 12:52:48;;;;;;;;;;;;;;;;;;5057577;28;20070;-85
2021/11/03 12:55:30;;;;;;;;;;;;;;;;;;5056840;28;19996;-82
2021/11/03 12:57:56;;;;;;;;;;;;;;;;;;5061312;28;19912;-84
2021/11/03 13:00:23;;;;;;;;;;;;;;;;;;5064145;28;19974;-83
2021/11/03 13:03:11;;;;;;;;;;;;;;;;;;5061070;28;19939;-81
2021/11/03 13:05:43;;;;;;;;;;;;;;;;;;5060919;28;20007;-83
2021/11/03 13:08:23;;;;;;;;;;;;;;;;;;5060255;28;20353;-86
2021/11/03 13:10:58;;;;;;;;;;;;;;;;;;5064952;28;20350;-82
2021/11/03 13:13:24;;;;;;;;;;;;;;;;;;5065528;28;19928;-82
2021/11/03 13:15:52;;;;;;;;;;;;;;;;;;5069897;28;19913;-83
2021/11/03 13:18:21;;;;;;;;;;;;;;;;;;5074561;28;19913;-82
2021/11/03 13:20:55;;;;;;;;;;;;;;;;;;5071741;28;19940;-82
2021/11/03 13:23:21;;;;;;;;;;;;;;;;;;5062596;28;19980;-83
2021/11/03 13:25:47;;;;;;;;;;;;;;;;;;5063001;28;19951;-82
2021/11/03 13:28:14;;;;;;;;;;;;;;;;;;5068986;28;19944;-82
2021/11/03 13:30:41;;;;;;;;;;;;;;;;;;5066169;28;19916;-81
2021/11/03 13:33:29;;;;;;;;;;;;;;;;;;5060089;28;19927;-83
2021/11/03 13:35:56;;;;;;;;;;;;;;;;;;5058415;28;20266;-82
2021/11/03 13:38:23;;;;;;;;;;;;;;;;;;5058982;28;19982;-85
2021/11/03 13:40:54;;;;;;;;;;;;;;;;;;5057974;28;19913;-83
2021/11/03 13:43:19;;;;;;;;;;;;;;;;;;5058691;28;19912;-82
2021/11/03 13:45:46;;;;;;;;;;;;;;;;;;5059061;28;19917;-83
2021/11/03 13:48:47;;;;;;;;;;;;;;;;;;5058971;28;19913;-82
2021/11/03 13:51:15;;;;;;;;;;;;;;;;;;5098394;28;19931;-83
2021/11/03 13:53:49;;;;;;;;;;;;;;;;;;5067498;28;20255;-82
2021/11/03 13:56:15;;;;;;;;;;;;;;;;;;5065168;28;19988;-83
2021/11/03 13:58:42;;;;;;;;;;;;;;;;;;5059906;28;19982;-82
2021/11/03 14:01:10;;;;;;;;;;;;;;;;;;5059596;28;19912;-82
2021/11/03 14:03:39;;;;;;;;;;;;;;;;;;5059542;28;20263;-83
2021/11/03 14:06:11;;;;;;;;;;;;;;;;;;5059665;28;20281;-82
2021/11/03 14:08:36;;;;;;;;;;;;;;;;;;5057796;28;19913;-84
2021/11/03 14:11:01;;;;;;;;;;;;;;;;;;5058715;28;19912;-83
2021/11/03 14:13:27;;;;;;;;;;;;;;;;;;5058987;28;19917;-83
2021/11/03 14:15:52;;;;;;;;;;;;;;;;;;5058050;28;19927;-82
2021/11/03 14:18:18;;;;;;;;;;;;;;;;;;5058250;28;19912;-80
2021/11/03 14:20:49;;;;;;;;;;;;;;;;;;5057650;28;20433;-82
2021/11/03 14:23:22;;;;;;;;;;;;;;;;;;5058554;28;19912;-83
2021/11/03 14:25:48;;;;;;;;;;;;;;;;;;5068237;28;19962;-84
2021/11/03 14:28:15;;;;;;;;;;;;;;;;;;5066876;28;20304;-82
2021/11/03 14:30:41;;;;;;;;;;;;;;;;;;5067602;28;19913;-83
2021/11/03 14:33:36;;;;;;;;;;;;;;;;;;5067068;28;19923;-82
2021/11/03 14:36:04;;;;;;;;;;;;;;;;;;5077723;28;20318;-83
2021/11/03 14:38:31;;;;;;;;;;;;;;;;;;5066930;28;19948;-81
2021/11/03 14:40:57;;;;;;;;;;;;;;;;;;5064168;28;19972;-82
2021/11/03 14:43:23;;;;;;;;;;;;;;;;;;5061000;28;19913;-82
2021/11/03 14:45:48;;;;;;;;;;;;;;;;;;5058814;28;19921;-82
2021/11/03 14:48:14;;;;;;;;;;;;;;;;;;5057253;28;19920;-81
2021/11/03 14:50:40;;;;;;;;;;;;;;;;;;5056665;28;20347;-81
2021/11/03 14:53:10;;;;;;;;;;;;;;;;;;5056767;28;19924;-81
2021/11/03 14:55:37;;;;;;;;;;;;;;;;;;5057343;28;20010;-82
2021/11/03 14:58:04;;;;;;;;;;;;;;;;;;5056893;28;20246;-80
2021/11/03 15:00:30;;;;;;;;;;;;;;;;;;5055965;28;19913;-81
2021/11/03 15:03:00;;;;;;;;;;;;;;;;;;5056665;28;20358;-81
2021/11/03 15:05:27;;;;;;;;;;;;;;;;;;5059927;28;20250;-81
2021/11/03 15:07:54;;;;;;;;;;;;;;;;;;5062432;28;20012;-82
2021/11/03 15:10:20;;;;;;;;;;;;;;;;;;5062333;28;19913;-84
2021/11/03 15:12:46;;;;;;;;;;;;;;;;;;5063480;28;19929;-81
2021/11/03 15:15:12;;;;;;;;;;;;;;;;;;5061413;28;19924;-82
2021/11/03 15:17:41;;;;;;;;;;;;;;;;;;5062158;28;19912;-84
2021/11/03 15:20:15;;;;;;;;;;;;;;;;;;5062076;28;19913;-82
2021/11/03 15:22:40;;;;;;;;;;;;;;;;;;5061633;28;19916;-82
2021/11/03 15:25:07;;;;;;;;;;;;;;;;;;5063030;28;20365;-82
2021/11/03 15:27:32;;;;;;;;;;;;;;;;;;5064786;28;19912;-83
2021/11/03 15:29:57;;;;;;;;;;;;;;;;;;5061945;28;19923;-81
2021/11/03 15:32:25;;;;;;;;;;;;;;;;;;5062857;28;19974;-81
2021/11/03 15:34:51;;;;;;;;;;;;;;;;;;5061597;28;19912;-81
2021/11/03 15:37:19;;;;;;;;;;;;;;;;;;5061268;28;19919;-82
2021/11/03 15:39:48;;;;;;;;;;;;;;;;;;5061480;28;19956;-82
2021/11/03 15:42:15;;;;;;;;;;;;;;;;;;5062027;28;19917;-82
2021/11/03 15:44:42;;;;;;;;;;;;;;;;;;5060543;28;20339;-82
2021/11/03 15:47:14;;;;;;;;;;;;;;;;;;5060306;28;19912;-81
2021/11/03 15:49:39;;;;;;;;;;;;;;;;;;5059294;28;20347;-80
2021/11/03 15:52:08;;;;;;;;;;;;;;;;;;5058584;28;19925;-80
2021/11/03 15:54:33;;;;;;;;;;;;;;;;;;5056301;28;20263;-80
2021/11/03 15:56:59;;;;;;;;;;;;;;;;;;5055866;28;20334;-80
2021/11/03 15:59:24;;;;;;;;;;;;;;;;;;5055460;28;20304;-80
2021/11/03 16:01:54;;;;;;;;;;;;;;;;;;5055545;28;20277;-80
2021/11/03 16:04:25;;;;;;;;;;;;;;;;;;5055144;28;19985;-82
2021/11/03 16:06:51;;;;;;;;;;;;;;;;;;5054887;28;19920;-81
2021/11/03 16:09:18;;;;;;;;;;;;;;;;;;5056222;28;19999;-81
2021/11/03 16:11:47;;;;;;;;;;;;;;;;;;5056104;28;19920;-80
2021/11/03 16:14:13;;;;;;;;;;;;;;;;;;5056768;28;20457;-80
2021/11/03 16:16:39;;;;;;;;;;;;;;;;;;5055209;28;19994;-81
2021/11/03 16:19:05;;;;;;;;;;;;;;;;;;5056750;28;20392;-81
2021/11/03 16:21:31;;;;;;;;;;;;;;;;;;5056612;28;19913;-82
2021/11/03 16:23:57;;;;;;;;;;;;;;;;;;5056757;28;19971;-81
2021/11/03 16:26:23;;;;;;;;;;;;;;;;;;5059588;28;20331;-79
2021/11/03 16:28:50;;;;;;;;;;;;;;;;;;5061746;28;19913;-82
2021/11/03 16:31:16;;;;;;;;;;;;;;;;;;5063560;28;19917;-82
2021/11/03 16:33:41;;;;;;;;;;;;;;;;;;5058361;28;19978;-82
2021/11/03 16:36:08;;;;;;;;;;;;;;;;;;5056463;28;19920;-80
2021/11/03 16:38:34;;;;;;;;;;;;;;;;;;5059831;28;19912;-82
2021/11/03 16:41:18;;;;;;;;;;;;;;;;;;5059913;28;19912;-82
2021/11/03 16:43:46;;;;;;;;;;;;;;;;;;5066153;28;19934;-82
2021/11/03 16:46:11;;;;;;;;;;;;;;;;;;5063617;28;20362;-81
2021/11/03 16:48:37;;;;;;;;;;;;;;;;;;5064291;28;19967;-82
2021/11/03 16:51:04;;;;;;;;;;;;;;;;;;5060507;28;19925;-82